Time;durP1;ratioP1;P1;durP2;ratioP2;P2;SDS_P1;SDS_P2;PMS_P1;PMS_P2;Temp;Humidity;BMP_temperature;BMP_pressure;BME280_temperature;BME280_humidity;BME280_pressure;Samples;Min_cycle;Max_cycle;Signal;HPM_P1;HPM_P2
2022/04/24 01:12:50;;;;;;;11.10;9.18;;;;;;;11.94;58.61;97890.59;1088110;54;20371;-85
2022/04/24 01:13:52;;;;;;;10.98;9.18;;;;;;;11.76;59.42;97899.22;1088387;54;20030;-84
2022/04/24 01:14:56;;;;;;;10.70;9.02;;;;;;;11.74;59.45;97895.91;1088348;54;20042;-83
2022/04/24 01:15:57;;;;;;;10.25;8.88;;;;;;;11.71;59.48;97897.97;1088459;46;20038;-82
2022/04/24 01:17:03;;;;;;;9.88;8.60;;;;;;;11.66;59.53;97895.09;1088426;54;20034;-84
2022/04/24 01:18:06;;;;;;;9.73;8.00;;;;;;;11.61;59.80;97886.88;1088415;54;20033;-83
2022/04/24 01:19:11;;;;;;;10.43;8.93;;;;;;;11.55;60.19;97898.38;1088397;54;20081;-82
2022/04/24 01:20:14;;;;;;;11.60;8.55;;;;;;;11.54;60.24;97894.88;1088405;54;20026;-83
2022/04/24 01:21:21;;;;;;;10.45;9.43;;;;;;;11.55;60.43;97893.00;1088376;54;20014;-82
2022/04/24 01:22:23;;;;;;;9.77;8.60;;;;;;;11.58;60.02;97884.59;1088296;54;20034;-85
2022/04/24 01:23:27;;;;;;;11.25;9.15;;;;;;;11.58;59.92;97881.06;1088042;54;20065;-84
2022/04/24 01:24:30;;;;;;;11.50;9.45;;;;;;;11.54;59.98;97886.00;1088069;54;20039;-86
2022/04/24 01:25:34;;;;;;;10.48;8.68;;;;;;;11.59;60.05;97877.38;1088011;54;20030;-84
2022/04/24 01:26:35;;;;;;;10.68;9.30;;;;;;;11.57;60.12;97882.94;1088086;54;20034;-84
2022/04/24 01:27:40;;;;;;;11.30;9.05;;;;;;;11.50;60.35;97879.44;1087979;54;20034;-84
2022/04/24 01:28:41;;;;;;;11.50;9.35;;;;;;;11.44;60.60;97882.91;1087964;54;20038;-80
2022/04/24 01:29:46;;;;;;;11.15;9.07;;;;;;;11.45;60.39;97877.38;1087983;54;20278;-83
2022/04/24 01:30:47;;;;;;;10.25;8.90;;;;;;;11.45;60.58;97871.19;1087971;54;20044;-82
2022/04/24 01:31:52;;;;;;;11.43;8.77;;;;;;;11.46;60.54;97875.50;1088062;54;20035;-82
2022/04/24 01:32:53;;;;;;;11.88;9.02;;;;;;;11.48;60.63;97882.28;1088353;54;20037;-82
2022/04/24 01:33:58;;;;;;;10.32;8.48;;;;;;;11.48;60.77;97884.97;1088251;54;20022;-81
2022/04/24 01:34:59;;;;;;;11.73;8.82;;;;;;;11.45;60.53;97876.53;1088349;54;20034;-83
2022/04/24 01:36:03;;;;;;;10.50;8.35;;;;;;;11.47;60.51;97880.69;1088239;54;20026;-82
2022/04/24 01:37:10;;;;;;;11.23;8.65;;;;;;;11.47;60.72;97880.69;1088529;46;20038;-84
2022/04/24 01:38:12;;;;;;;11.18;8.48;;;;;;;11.43;60.67;97886.63;1088230;54;20038;-84
2022/04/24 01:39:17;;;;;;;9.85;8.18;;;;;;;11.48;60.34;97878.81;1088372;54;20030;-82
2022/04/24 01:40:20;;;;;;;10.40;8.82;;;;;;;11.48;60.70;97881.47;1089854;39;20602;-85
2022/04/24 01:41:24;;;;;;;10.73;8.60;;;;;;;11.51;60.38;97886.44;1088383;54;20030;-83
2022/04/24 01:42:26;;;;;;;11.00;9.45;;;;;;;11.43;60.66;97887.44;1088310;54;20034;-85
2022/04/24 01:43:30;;;;;;;11.02;9.40;;;;;;;11.43;60.62;97876.75;1088379;54;20678;-83
2022/04/24 01:44:35;;;;;;;10.35;8.73;;;;;;;11.44;60.60;97880.22;1088243;54;20688;-82
2022/04/24 01:45:36;;;;;;;11.88;8.77;;;;;;;11.41;60.72;97870.75;1088317;54;20035;-83
2022/04/24 01:46:40;;;;;;;11.52;8.90;;;;;;;11.39;60.88;97868.31;1088280;54;20034;-86
2022/04/24 01:47:42;;;;;;;9.20;8.05;;;;;;;11.47;60.47;97863.78;1087979;54;20034;-84
2022/04/24 01:48:46;;;;;;;10.55;8.45;;;;;;;11.53;60.18;97860.28;1088205;54;20061;-82
2022/04/24 01:49:47;;;;;;;10.40;8.70;;;;;;;11.57;60.50;97858.84;1088306;54;20037;-84
2022/04/24 01:50:55;;;;;;;11.23;9.45;;;;;;;11.49;60.62;97859.88;1088355;54;20094;-85
2022/04/24 01:51:59;;;;;;;15.50;8.65;;;;;;;11.49;60.63;97856.38;1088342;54;20075;-82
2022/04/24 01:53:05;;;;;;;11.63;9.13;;;;;;;11.45;60.91;97857.81;1088345;54;20023;-82
2022/04/24 01:54:09;;;;;;;11.13;8.25;;;;;;;11.51;60.66;97851.66;1090319;46;20046;-83
2022/04/24 01:55:13;;;;;;;9.73;7.72;;;;;;;11.57;60.37;97864.22;1092405;39;20527;-84
2022/04/24 01:56:15;;;;;;;10.52;8.27;;;;;;;11.66;60.12;97854.94;1088294;54;20034;-82
2022/04/24 01:57:19;;;;;;;10.30;8.00;;;;;;;11.68;59.78;97865.44;1091195;46;20078;-84
2022/04/24 01:58:20;;;;;;;10.43;8.32;;;;;;;11.65;60.19;97858.66;1088342;54;20039;-83
2022/04/24 01:59:25;;;;;;;10.30;8.73;;;;;;;11.67;60.01;97869.13;1088357;54;20022;-82
2022/04/24 02:00:26;;;;;;;10.05;8.88;;;;;;;11.69;59.91;97872.44;1095461;39;20626;-81
2022/04/24 02:01:31;;;;;;;10.73;8.45;;;;;;;11.63;59.75;97875.94;1088339;54;20030;-82
2022/04/24 02:02:32;;;;;;;10.85;8.73;;;;;;;11.66;60.11;97879.03;1088352;54;20035;-84
2022/04/24 02:03:37;;;;;;;10.93;8.60;;;;;;;11.64;59.69;97875.72;1088107;54;20031;-83
2022/04/24 02:04:42;;;;;;;9.93;8.27;;;;;;;11.65;60.00;97881.94;1087838;54;20046;-85
2022/04/24 02:05:43;;;;;;;12.07;8.88;;;;;;;11.62;59.87;97871.63;1088341;54;20026;-83
2022/04/24 02:06:47;;;;;;;9.75;8.73;;;;;;;11.58;60.20;97873.88;1088351;54;20034;-83
2022/04/24 02:07:49;;;;;;;11.18;8.57;;;;;;;11.56;60.45;97873.25;1088393;54;20057;-84
2022/04/24 02:08:56;;;;;;;11.38;9.30;;;;;;;11.58;60.44;97865.00;1088325;54;20037;-84
2022/04/24 02:09:57;;;;;;;10.90;8.48;;;;;;;11.59;60.00;97872.84;1088357;54;20026;-83
2022/04/24 02:11:02;;;;;;;11.85;8.85;;;;;;;11.58;60.24;97876.56;1088350;54;20041;-83
2022/04/24 02:12:04;;;;;;;10.98;8.57;;;;;;;11.58;60.06;97881.06;1088058;54;20035;-85
2022/04/24 02:13:09;;;;;;;11.00;8.52;;;;;;;11.60;60.11;97879.03;1088352;54;20042;-82
2022/04/24 02:14:13;;;;;;;10.27;8.43;;;;;;;11.62;59.85;97883.13;1088293;54;20034;-83
2022/04/24 02:15:14;;;;;;;10.48;8.65;;;;;;;11.56;60.35;97881.28;1088351;54;20022;-83
2022/04/24 02:16:18;;;;;;;10.57;8.70;;;;;;;11.59;60.07;97883.56;1089572;46;20019;-83
2022/04/24 02:17:20;;;;;;;11.02;8.88;;;;;;;11.62;60.05;97885.00;1088353;54;20018;-84
2022/04/24 02:18:24;;;;;;;10.40;7.82;;;;;;;11.63;60.01;97883.97;1088306;54;20082;-83
2022/04/24 02:19:26;;;;;;;10.10;8.25;;;;;;;11.66;60.09;97887.06;1089981;46;20023;-85
2022/04/24 02:20:31;;;;;;;11.40;8.75;;;;;;;11.68;59.97;97882.34;1088065;54;20049;-85
2022/04/24 02:21:33;;;;;;;10.35;8.05;;;;;;;11.67;59.63;97882.53;1088144;54;20038;-84
2022/04/24 02:22:37;;;;;;;12.07;8.18;;;;;;;11.70;59.88;97884.78;1094450;46;20030;-83
2022/04/24 02:23:38;;;;;;;10.18;7.80;;;;;;;11.74;59.83;97890.56;1088328;54;20029;-86
2022/04/24 02:24:45;;;;;;;9.68;8.23;;;;;;;11.77;59.72;97893.66;1088381;54;20018;-85
2022/04/24 02:25:47;;;;;;;9.23;7.53;;;;;;;11.82;59.58;97895.72;1088377;54;20034;-83
2022/04/24 02:26:52;;;;;;;9.18;7.45;;;;;;;11.89;59.23;97901.06;1088326;54;20030;-85
2022/04/24 02:27:53;;;;;;;8.15;6.32;;;;;;;11.92;58.99;97904.16;1092046;46;20061;-85
2022/04/24 02:28:58;;;;;;;8.57;7.40;;;;;;;11.97;59.00;97915.13;1088297;54;20027;-83
2022/04/24 02:30:00;;;;;;;9.65;7.25;;;;;;;11.96;58.95;97913.44;1088379;54;20038;-85
2022/04/24 02:31:04;;;;;;;10.15;7.47;;;;;;;11.92;59.05;97919.41;1088328;54;20035;-85
2022/04/24 02:32:07;;;;;;;9.50;7.97;;;;;;;11.90;58.97;97921.47;1088267;54;20038;-83
2022/04/24 02:33:11;;;;;;;9.13;7.50;;;;;;;11.89;58.95;97926.00;1088339;54;20025;-83
2022/04/24 02:34:13;;;;;;;11.40;7.63;;;;;;;11.83;59.26;97922.28;1088246;54;20030;-84
2022/04/24 02:35:17;;;;;;;10.20;8.43;;;;;;;11.83;59.39;97932.16;1088315;54;20022;-86
2022/04/24 02:36:19;;;;;;;9.70;7.85;;;;;;;11.86;59.06;97937.13;1088278;54;20030;-83
2022/04/24 02:37:23;;;;;;;9.65;7.38;;;;;;;11.92;59.08;97935.47;1087891;54;20034;-83
2022/04/24 02:38:25;;;;;;;10.82;7.25;;;;;;;11.97;58.80;97939.22;1087990;54;20014;-85
2022/04/24 02:39:29;;;;;;;8.70;6.70;;;;;;;12.06;58.50;97939.00;1088317;54;20138;-86
2022/04/24 02:40:34;;;;;;;8.68;6.70;;;;;;;12.12;58.25;97951.56;1090097;46;20034;-85
2022/04/24 02:41:38;;;;;;;7.57;5.78;;;;;;;12.17;58.51;97949.13;1088299;54;20030;-86
2022/04/24 02:42:40;;;;;;;8.10;6.20;;;;;;;12.20;58.02;97954.03;1088310;54;20030;-83
2022/04/24 02:43:44;;;;;;;8.18;5.95;;;;;;;12.21;58.20;97961.06;1088267;54;20034;-84
2022/04/24 02:44:46;;;;;;;7.47;6.20;;;;;;;12.24;58.05;97965.16;1090338;46;20050;-83
2022/04/24 02:45:50;;;;;;;7.75;5.63;;;;;;;12.30;57.82;97959.00;1088261;54;20027;-83
2022/04/24 02:46:52;;;;;;;12.10;7.15;;;;;;;12.27;57.87;97960.25;1095614;39;20573;-84
2022/04/24 02:47:56;;;;;;;8.73;6.95;;;;;;;12.24;58.17;97955.28;1088302;54;20019;-83
2022/04/24 02:48:57;;;;;;;9.80;7.38;;;;;;;12.15;58.04;97962.69;1088228;54;21024;-84
2022/04/24 02:50:02;;;;;;;9.43;7.00;;;;;;;12.17;58.05;97965.19;1088295;54;20042;-84
2022/04/24 02:51:06;;;;;;;9.13;7.28;;;;;;;12.17;58.16;97963.31;1088284;54;20023;-83
2022/04/24 02:52:08;;;;;;;9.43;7.70;;;;;;;12.15;58.33;97967.25;1088258;54;20034;-83
2022/04/24 02:53:12;;;;;;;8.50;6.95;;;;;;;12.12;58.38;97965.81;1088095;54;20027;-83
2022/04/24 02:54:14;;;;;;;8.43;7.07;;;;;;;12.08;58.44;97961.06;1087804;54;20038;-83
2022/04/24 02:55:19;;;;;;;10.70;7.78;;;;;;;12.08;58.43;97971.78;1087978;46;20015;-83
2022/04/24 02:56:23;;;;;;;10.02;6.88;;;;;;;12.11;58.24;97960.63;1087754;54;20045;-84
2022/04/24 02:57:28;;;;;;;9.15;7.80;;;;;;;12.11;58.47;97961.47;1087634;54;20058;-85
2022/04/24 02:58:32;;;;;;;9.52;8.20;;;;;;;12.01;58.43;97961.06;1087793;54;20089;-83
2022/04/24 02:59:33;;;;;;;9.63;7.50;;;;;;;12.06;58.38;97957.75;1087738;54;20036;-81
2022/04/24 03:00:50;;;;;;;7.88;6.85;;;;;;;12.09;58.26;97971.56;1087816;54;20030;-81
2022/04/24 03:01:52;;;;;;;9.38;7.43;;;;;;;12.01;58.56;97969.91;1087740;54;20034;-81
2022/04/24 03:02:57;;;;;;;9.30;7.60;;;;;;;12.00;58.81;97970.91;1087904;54;20034;-82
2022/04/24 03:03:58;;;;;;;9.55;7.78;;;;;;;12.01;58.76;97974.44;1088583;39;20637;-80
2022/04/24 03:05:03;;;;;;;8.98;7.72;;;;;;;12.05;58.82;97970.31;1088157;54;20034;-82
2022/04/24 03:06:04;;;;;;;9.98;7.88;;;;;;;12.08;58.41;97964.56;1088176;54;20053;-81
2022/04/24 03:07:16;;;;;;;9.07;7.45;;;;;;;12.11;58.61;97976.69;1088213;54;20065;-84
2022/04/24 03:08:50;;;;;;;;;;;;;;;;;;;;;
2022/04/24 03:15:51;;;;;;;11.20;7.30;;;;;;;11.88;60.24;97977.91;1075602;54;20029;31
2022/04/24 03:17:13;;;;;;;8.93;7.00;;;;;;;11.87;60.73;97973.56;1087594;54;21507;-85
2022/04/24 03:18:18;;;;;;;8.82;7.18;;;;;;;11.94;60.08;97977.06;1087335;54;20098;-83
2022/04/24 03:19:19;;;;;;;9.30;7.32;;;;;;;12.00;60.06;97981.63;1087707;54;20110;-83
2022/04/24 03:20:25;;;;;;;9.18;7.45;;;;;;;12.01;59.93;97980.59;1087927;54;20030;-82
2022/04/24 03:21:26;;;;;;;9.70;7.15;;;;;;;12.02;60.33;97978.78;1088273;46;20045;-83
2022/04/24 03:22:33;;;;;;;8.48;6.70;;;;;;;12.09;59.88;97986.81;1087910;54;20022;-83
2022/04/24 03:23:35;;;;;;;8.75;6.55;;;;;;;12.08;60.13;97987.84;1087866;54;20054;-82
2022/04/24 03:24:39;;;;;;;8.32;6.70;;;;;;;12.13;60.12;97985.38;1087880;54;20030;-82
2022/04/24 03:25:41;;;;;;;8.27;7.05;;;;;;;12.13;59.93;97990.72;1087913;54;20034;-83
2022/04/24 03:26:45;;;;;;;9.70;7.82;;;;;;;12.11;60.11;97987.41;1090354;39;20785;-81
2022/04/24 03:27:46;;;;;;;10.98;7.90;;;;;;;12.04;60.36;97990.09;1087985;54;20054;-82
2022/04/24 03:28:50;;;;;;;12.00;8.00;;;;;;;12.04;60.21;97991.94;1087891;54;20019;-84
2022/04/24 03:29:52;;;;;;;8.38;6.70;;;;;;;12.13;60.16;97988.03;1087932;54;20057;-84
2022/04/24 03:30:56;;;;;;;8.75;7.45;;;;;;;12.13;60.30;97988.03;1087897;54;20109;-83
2022/04/24 03:31:58;;;;;;;8.77;7.20;;;;;;;12.12;60.56;97986.38;1087831;54;20038;-83
2022/04/24 03:33:05;;;;;;;8.48;7.07;;;;;;;12.10;60.75;97989.28;1088177;54;20036;-84
2022/04/24 03:34:07;;;;;;;8.25;6.93;;;;;;;12.13;60.82;97985.38;1087887;54;20038;-82
2022/04/24 03:35:12;;;;;;;8.15;7.22;;;;;;;12.07;61.08;97981.66;1087708;54;20034;-84
2022/04/24 03:36:17;;;;;;;9.68;7.93;;;;;;;12.06;61.19;97984.53;1088167;54;20029;-83
2022/04/24 03:37:19;;;;;;;8.45;7.13;;;;;;;12.08;61.33;97979.81;1088119;54;20035;-84
2022/04/24 03:38:23;;;;;;;10.13;7.85;;;;;;;11.99;61.96;97979.16;1088175;54;20018;-83
2022/04/24 03:39:25;;;;;;;10.55;8.05;;;;;;;11.90;62.46;97975.84;1088134;54;20057;-84
2022/04/24 03:40:29;;;;;;;8.57;7.38;;;;;;;11.90;62.65;97970.50;1088391;46;20064;-85
2022/04/24 03:41:30;;;;;;;10.18;8.52;;;;;;;11.83;63.06;97972.31;1088122;54;20038;-84
2022/04/24 03:42:35;;;;;;;10.98;8.50;;;;;;;11.80;63.27;97970.88;1089033;46;20034;-81
2022/04/24 03:43:37;;;;;;;14.60;8.50;;;;;;;11.73;63.76;97966.53;1088086;54;20018;-83
2022/04/24 03:44:41;;;;;;;10.57;8.65;;;;;;;11.73;64.04;97963.84;1088219;54;20022;-86
2022/04/24 03:45:45;;;;;;;10.48;8.63;;;;;;;11.70;64.22;97971.28;1088233;54;20014;-84
2022/04/24 03:46:47;;;;;;;9.32;7.60;;;;;;;11.70;64.56;97978.47;1088166;54;20026;-82
2022/04/24 03:47:51;;;;;;;10.20;8.43;;;;;;;11.72;64.61;97963.03;1088170;54;20639;-83
2022/04/24 03:48:56;;;;;;;8.90;7.72;;;;;;;11.66;65.11;97975.38;1088194;54;20057;-84
2022/04/24 03:50:00;;;;;;;10.82;8.52;;;;;;;11.69;64.78;97974.16;1088207;54;20050;-86
2022/04/24 03:51:02;;;;;;;9.80;8.27;;;;;;;11.62;64.88;97976.81;1088339;39;20264;-83
2022/04/24 03:52:08;;;;;;;9.23;7.97;;;;;;;11.61;65.62;97972.50;1087785;54;20110;-85
2022/04/24 03:53:10;;;;;;;10.00;8.13;;;;;;;11.51;66.10;97974.75;1088160;54;20045;-85
2022/04/24 03:54:14;;;;;;;10.52;8.73;;;;;;;11.47;66.06;97976.16;1088158;54;20042;-83
2022/04/24 03:55:16;;;;;;;9.80;8.80;;;;;;;11.42;66.51;97973.25;1088127;54;20030;-84
2022/04/24 03:56:20;;;;;;;12.32;9.07;;;;;;;11.38;66.47;97962.97;1088168;54;20046;-82
2022/04/24 03:57:21;;;;;;;10.43;8.82;;;;;;;11.42;66.55;97973.25;1088111;54;20046;-81
2022/04/24 03:58:26;;;;;;;9.68;8.25;;;;;;;11.41;66.51;97971.63;1088119;54;20026;-82
2022/04/24 03:59:29;;;;;;;12.32;8.75;;;;;;;11.33;66.70;97976.13;1088137;54;20034;-83
2022/04/24 04:00:33;;;;;;;10.52;8.57;;;;;;;11.30;67.28;97973.84;1088140;54;20034;-83
2022/04/24 04:01:35;;;;;;;11.20;9.20;;;;;;;11.23;67.51;97973.00;1090117;46;20039;-86
2022/04/24 04:02:47;;;;;;;11.45;9.93;;;;;;;11.12;68.15;97965.53;1088196;54;20034;-85
2022/04/24 04:03:49;;;;;;;12.85;10.00;;;;;;;11.10;67.76;97968.38;1088141;54;20046;-84
2022/04/24 04:04:56;;;;;;;10.55;9.43;;;;;;;11.12;68.07;97966.34;1088129;54;20858;-84
2022/04/24 04:05:58;;;;;;;10.18;9.00;;;;;;;11.11;67.84;97966.56;1088135;54;20046;-83
2022/04/24 04:07:02;;;;;;;9.88;8.30;;;;;;;11.14;68.21;97966.16;1088104;54;20058;-84
2022/04/24 04:08:07;;;;;;;9.93;8.27;;;;;;;11.20;67.51;97970.72;1088621;39;20669;-85
2022/04/24 04:09:10;;;;;;;11.27;9.30;;;;;;;11.20;67.84;97970.72;1088985;46;20030;-84
2022/04/24 04:10:14;;;;;;;9.07;8.00;;;;;;;11.28;67.33;97975.06;1088194;54;20099;-84
2022/04/24 04:11:16;;;;;;;10.05;8.52;;;;;;;11.26;67.56;97983.28;1088167;54;20026;-84
2022/04/24 04:12:20;;;;;;;12.55;10.02;;;;;;;11.18;68.58;97978.09;1088212;54;20018;-83
2022/04/24 04:13:22;;;;;;;10.23;9.02;;;;;;;11.19;67.81;97977.06;1088188;54;20030;-83
2022/04/24 04:14:27;;;;;;;13.20;9.98;;;;;;;11.15;68.57;97978.50;1088138;54;20106;-83
2022/04/24 04:15:29;;;;;;;11.32;9.57;;;;;;;11.13;68.80;97977.88;1088170;54;20037;-84
2022/04/24 04:16:33;;;;;;;10.60;9.40;;;;;;;11.12;68.70;97978.91;1087659;54;20086;-83
2022/04/24 04:17:34;;;;;;;11.57;9.70;;;;;;;11.12;68.97;97973.56;1091925;47;20057;-84
2022/04/24 04:18:39;;;;;;;11.35;9.38;;;;;;;11.14;68.59;97976.88;1088023;46;20057;-84
2022/04/24 04:19:40;;;;;;;11.45;8.82;;;;;;;11.14;69.04;97979.53;1088399;47;20030;-83
2022/04/24 04:20:47;;;;;;;11.32;9.20;;;;;;;11.19;68.87;97969.06;1088168;54;20037;-84
2022/04/24 04:21:49;;;;;;;10.82;9.52;;;;;;;11.08;69.15;97979.28;1089963;47;20034;-85
2022/04/24 04:22:55;;;;;;;11.60;10.20;;;;;;;11.02;69.47;97981.94;1088156;54;20015;-84
2022/04/24 04:23:57;;;;;;;11.23;9.95;;;;;;;11.00;69.94;97974.13;1087938;54;20038;-84
2022/04/24 04:25:01;;;;;;;11.48;9.70;;;;;;;11.04;69.66;97983.41;1087822;54;20042;-84
2022/04/24 04:26:03;;;;;;;11.95;9.95;;;;;;;11.01;70.45;97977.59;1092347;47;20359;-85
2022/04/24 04:27:07;;;;;;;10.55;9.38;;;;;;;11.00;70.59;97974.13;1088172;54;20025;-85
2022/04/24 04:28:09;;;;;;;11.10;9.35;;;;;;;10.95;70.91;97978.41;1088174;54;20042;-85
2022/04/24 04:29:13;;;;;;;11.57;10.35;;;;;;;10.90;71.11;97976.31;1088115;54;20034;-85
2022/04/24 04:30:15;;;;;;;12.25;10.27;;;;;;;10.86;70.91;97975.09;1088150;54;20094;-83
2022/04/24 04:31:20;;;;;;;13.13;9.88;;;;;;;10.88;70.94;97978.34;1087952;54;20030;-84
2022/04/24 04:32:21;;;;;;;13.70;10.20;;;;;;;10.92;70.57;97974.28;1088108;54;20034;-87
2022/04/24 04:33:25;;;;;;;11.77;9.63;;;;;;;11.01;70.20;97978.44;1092283;46;20061;-85
2022/04/24 04:34:30;;;;;;;12.63;10.15;;;;;;;10.98;70.70;97984.19;1088141;54;20042;-83
2022/04/24 04:35:32;;;;;;;13.57;11.07;;;;;;;10.87;70.85;97982.91;1088110;54;20057;-83
2022/04/24 04:36:39;;;;;;;11.85;9.57;;;;;;;10.95;70.96;97976.56;1088138;54;20033;-86
2022/04/24 04:37:41;;;;;;;12.68;10.60;;;;;;;10.92;70.85;97974.28;1088108;54;20022;-83
2022/04/24 04:38:45;;;;;;;13.02;10.98;;;;;;;10.82;71.33;97982.66;1088043;54;20071;-84
2022/04/24 04:39:47;;;;;;;13.63;10.15;;;;;;;10.85;71.39;97986.78;1088098;54;20022;-84
2022/04/24 04:40:51;;;;;;;11.10;9.90;;;;;;;10.89;71.28;97980.00;1087772;54;20046;-82
2022/04/24 04:41:52;;;;;;;11.02;9.73;;;;;;;10.85;71.41;97979.59;1087730;54;20026;-85
2022/04/24 04:42:57;;;;;;;11.27;10.02;;;;;;;10.81;71.75;97985.53;1092438;39;20653;-84
2022/04/24 04:43:58;;;;;;;12.15;10.48;;;;;;;10.72;71.58;97969.66;1088050;54;20023;-84
2022/04/24 04:45:03;;;;;;;14.13;12.35;;;;;;;10.75;71.59;97973.78;1088122;54;20038;-85
2022/04/24 04:46:05;;;;;;;12.70;10.98;;;;;;;10.72;71.77;97976.84;1088077;54;20018;-84
2022/04/24 04:47:10;;;;;;;12.82;10.02;;;;;;;10.80;71.40;97978.53;1088104;54;20018;-83
2022/04/24 04:48:11;;;;;;;10.73;9.18;;;;;;;10.90;71.06;97981.66;1088079;54;20037;-83
2022/04/24 04:49:16;;;;;;;10.63;9.52;;;;;;;10.92;71.09;97990.31;1088043;54;20022;-84
2022/04/24 04:50:18;;;;;;;12.88;10.20;;;;;;;10.90;70.94;97989.69;1088153;54;20058;-85
2022/04/24 04:51:23;;;;;;;11.55;10.32;;;;;;;10.88;71.01;97989.06;1088102;54;20038;-84
2022/04/24 04:52:27;;;;;;;10.98;9.15;;;;;;;10.88;71.01;97989.91;1090556;47;20090;-84
2022/04/24 04:53:31;;;;;;;12.13;9.95;;;;;;;10.91;71.01;97994.00;1092592;39;20332;-83
2022/04/24 04:54:34;;;;;;;11.55;9.55;;;;;;;10.95;70.77;97991.78;1088033;54;20039;-85
2022/04/24 04:55:38;;;;;;;11.75;9.95;;;;;;;10.96;71.00;97996.91;1088314;47;20021;-85
2022/04/24 04:56:40;;;;;;;10.95;9.27;;;;;;;10.97;70.63;97997.75;1088019;54;20069;-84
2022/04/24 04:57:45;;;;;;;9.90;8.90;;;;;;;11.00;70.80;97992.84;1087663;54;20026;-84
2022/04/24 04:58:49;;;;;;;10.63;8.68;;;;;;;11.00;70.71;97992.84;1087841;54;20015;-85
2022/04/24 04:59:51;;;;;;;11.50;9.05;;;;;;;10.98;71.01;98004.75;1088048;54;20027;-85
2022/04/24 05:00:55;;;;;;;11.82;9.52;;;;;;;11.01;70.76;97996.31;1088066;54;20041;-84
2022/04/24 05:01:58;;;;;;;11.13;9.80;;;;;;;11.00;70.73;97998.19;1088021;54;20026;-83
2022/04/24 05:03:02;;;;;;;11.05;9.27;;;;;;;11.05;70.66;97998.41;1088108;54;20027;-84
2022/04/24 05:04:07;;;;;;;10.20;8.70;;;;;;;11.11;70.36;97998.66;1088045;54;20035;-84
2022/04/24 05:05:09;;;;;;;9.90;8.38;;;;;;;11.16;70.43;98006.88;1088174;54;20041;-83
2022/04/24 05:06:14;;;;;;;9.65;8.48;;;;;;;11.21;70.26;98001.78;1088076;54;20061;-84
2022/04/24 05:07:16;;;;;;;9.57;7.70;;;;;;;11.22;69.88;98004.25;1088150;54;20019;-85
2022/04/24 05:08:23;;;;;;;10.07;8.80;;;;;;;11.14;70.30;97999.06;1088061;54;20079;-83
2022/04/24 05:09:25;;;;;;;12.63;9.73;;;;;;;11.10;70.24;97999.66;1088086;54;20027;-83
2022/04/24 05:11:35;;;;;;;10.35;8.75;;;;;;;11.12;70.10;98005.66;1090770;31;21208;31
2022/04/24 05:13:40;;;;;;;9.13;7.88;;;;;;;11.24;69.73;98014.75;1087861;54;20018;-84
2022/04/24 05:14:41;;;;;;;9.48;7.95;;;;;;;11.28;69.69;98013.31;1087661;54;20058;-82
2022/04/24 05:15:46;;;;;;;8.23;6.90;;;;;;;11.31;69.67;98014.78;1087995;54;20037;-82
2022/04/24 05:16:47;;;;;;;9.73;7.72;;;;;;;11.35;69.39;98013.38;1088093;54;20077;-82
2022/04/24 05:17:52;;;;;;;13.15;10.00;;;;;;;11.27;69.51;98014.34;1088218;54;20086;-84
2022/04/24 05:18:54;;;;;;;11.52;9.00;;;;;;;11.19;69.97;98020.69;1088454;47;20023;-82
2022/04/24 05:19:59;;;;;;;11.27;8.95;;;;;;;11.20;69.79;98029.53;1088153;54;20030;-84
2022/04/24 05:21:02;;;;;;;12.35;9.68;;;;;;;11.11;70.02;98020.03;1099455;39;20199;-86
2022/04/24 05:22:09;;;;;;;10.43;8.48;;;;;;;11.20;69.70;98024.19;1088652;54;20034;-83
2022/04/24 05:23:14;;;;;;;10.55;8.63;;;;;;;11.20;69.81;98022.34;1088604;54;20026;-84
2022/04/24 05:24:21;;;;;;;10.45;8.45;;;;;;;11.22;69.82;98022.97;1091558;46;20030;-83
2022/04/24 05:25:22;;;;;;;11.05;8.60;;;;;;;11.23;69.72;98027.28;1088508;54;20026;-83
2022/04/24 05:26:34;;;;;;;9.48;8.32;;;;;;;11.30;69.78;98038.03;1088497;54;20032;-82
2022/04/24 05:27:36;;;;;;;8.98;7.03;;;;;;;11.34;69.34;98031.25;1100094;46;20107;-85
2022/04/24 05:28:40;;;;;;;8.75;7.47;;;;;;;11.39;69.25;98039.50;1088495;54;20087;-85
2022/04/24 05:29:42;;;;;;;8.98;8.07;;;;;;;11.42;68.98;98037.47;1088495;54;20037;-84
2022/04/24 05:30:47;;;;;;;9.32;7.70;;;;;;;11.39;69.08;98041.34;1088307;54;20034;-85
2022/04/24 05:32:54;;;;;;;9.07;7.50;;;;;;;11.45;69.17;98037.91;1083098;39;20252;-86
2022/04/24 05:35:02;;;;;;;9.93;8.93;;;;;;;11.37;69.23;98036.22;1092380;39;20692;-85
2022/04/24 05:36:05;;;;;;;10.88;9.40;;;;;;;11.37;69.15;98044.22;1088389;54;20152;-83
2022/04/24 05:37:09;;;;;;;12.15;9.75;;;;;;;11.24;69.57;98041.50;1088360;54;20015;-84
2022/04/24 05:38:11;;;;;;;12.00;10.48;;;;;;;11.13;69.86;98050.09;1090511;46;20042;-85
2022/04/24 05:39:15;;;;;;;13.77;10.60;;;;;;;11.03;69.97;98048.59;1089160;46;20113;-83
2022/04/24 05:40:20;;;;;;;13.07;10.88;;;;;;;10.99;70.11;98054.53;1088214;54;20038;-83
2022/04/24 05:41:24;;;;;;;15.60;11.50;;;;;;;10.88;70.37;98058.56;1088764;46;20031;-85
2022/04/24 05:42:26;;;;;;;12.10;10.50;;;;;;;10.98;70.24;98052.88;1088335;54;20018;-83
2022/04/24 05:43:30;;;;;;;11.52;10.05;;;;;;;11.05;69.96;98059.09;1088505;54;20074;-86
2022/04/24 05:46:40;;;;;;;12.82;9.02;;;;;;;11.17;69.47;98068.22;1088616;54;20014;-85
2022/04/24 05:47:42;;;;;;;10.07;9.00;;;;;;;11.16;69.69;98071.91;1088406;54;20019;-84
2022/04/24 05:49:49;;;;;;;13.10;11.02;;;;;;;11.05;69.89;98067.91;1091320;39;20288;-83
2022/04/24 05:50:51;;;;;;;11.00;9.48;;;;;;;11.07;69.91;98073.09;1088310;54;20041;-83
2022/04/24 05:51:55;;;;;;;12.82;10.88;;;;;;;10.95;70.70;98067.47;1088331;54;20041;-85
2022/04/24 05:53:00;;;;;;;13.45;11.45;;;;;;;10.89;71.12;98063.72;1088500;46;20034;-84
2022/04/24 05:54:02;;;;;;;13.43;10.90;;;;;;;10.85;71.46;98064.31;1090566;46;20038;-84
2022/04/24 05:55:07;;;;;;;11.55;10.15;;;;;;;10.92;71.20;98067.84;1088372;54;20035;-86
2022/04/24 05:56:11;;;;;;;12.85;10.55;;;;;;;10.87;71.75;98062.25;1088429;54;20033;-84
2022/04/24 05:57:15;;;;;;;13.57;10.73;;;;;;;10.86;71.74;98063.28;1088500;54;20010;-84
2022/04/24 05:58:17;;;;;;;13.90;10.25;;;;;;;10.86;71.82;98065.97;1088410;54;20019;-84
2022/04/24 05:59:21;;;;;;;12.25;10.95;;;;;;;10.83;71.70;98067.16;1088400;54;20753;-85
2022/04/24 06:00:23;;;;;;;13.32;10.90;;;;;;;10.76;72.12;98066.28;1088492;54;20025;-86
2022/04/24 06:01:27;;;;;;;14.63;10.95;;;;;;;10.73;72.70;98056.81;1090748;46;20010;-86
2022/04/24 06:02:29;;;;;;;13.57;10.70;;;;;;;10.75;72.47;98064.63;1088432;54;20019;-85
2022/04/24 06:03:33;;;;;;;12.00;9.75;;;;;;;10.79;72.43;98057.91;1088279;54;20022;-85
2022/04/24 06:04:35;;;;;;;12.15;10.18;;;;;;;10.77;72.60;98058.06;1088335;46;20030;-85
2022/04/24 06:05:40;;;;;;;11.70;9.43;;;;;;;10.77;72.54;98058.06;1088225;54;20763;-83
2022/04/24 06:06:41;;;;;;;13.40;10.90;;;;;;;10.72;72.74;98057.84;1089247;39;20706;-83
2022/04/24 06:07:46;;;;;;;15.43;11.57;;;;;;;10.69;73.06;98057.41;1088347;54;20019;-82
2022/04/24 06:08:48;;;;;;;13.02;10.70;;;;;;;10.74;72.78;98058.47;1088260;54;20065;-84
2022/04/24 06:09:52;;;;;;;13.20;10.55;;;;;;;10.72;72.94;98051.69;1088358;54;20021;-83
2022/04/24 06:10:54;;;;;;;12.25;9.88;;;;;;;10.74;72.78;98054.97;1088335;54;20105;-83
2022/04/24 06:12:01;;;;;;;13.45;10.98;;;;;;;10.72;73.12;98052.50;1088342;54;20062;-85
2022/04/24 06:13:02;;;;;;;11.40;9.70;;;;;;;10.71;73.18;98052.69;1088346;54;20034;-84
2022/04/24 06:14:08;;;;;;;13.30;10.48;;;;;;;10.63;73.69;98047.50;1088403;54;20014;-85
2022/04/24 06:15:15;;;;;;;12.35;10.43;;;;;;;10.58;74.04;98054.25;1088608;54;20015;-86
2022/04/24 06:16:19;;;;;;;11.52;9.88;;;;;;;10.65;73.73;98053.47;1088493;54;20034;-85
2022/04/24 06:17:21;;;;;;;13.55;11.70;;;;;;;10.55;74.64;98053.81;1088487;54;20666;-85
2022/04/24 06:18:25;;;;;;;14.00;11.73;;;;;;;10.45;75.32;98059.47;1088453;54;20034;-87
2022/04/24 06:19:27;;;;;;;14.43;11.52;;;;;;;10.41;75.84;98063.56;1088480;54;20054;-84
2022/04/24 06:20:32;;;;;;;13.23;11.50;;;;;;;10.42;76.20;98066.03;1088362;54;20085;-84
2022/04/24 06:21:34;;;;;;;13.93;12.02;;;;;;;10.37;76.90;98055.09;1090848;46;20034;-85
2022/04/24 06:22:44;;;;;;;14.15;12.00;;;;;;;10.33;77.97;98051.13;1088474;54;20030;-85